sensor_id;sensor_type;location;lat;lon;timestamp;pressure;altitude;pressure_sealevel;temperature;humidity
79242;BME280;68670;48.720;9.118;2023-08-30T00:00:33;96332.34;;;12.34;100.00
79242;BME280;68670;48.720;9.118;2023-08-30T00:03:01;96327.66;;;12.30;100.00
79242;BME280;68670;48.720;9.118;2023-08-30T00:05:28;96326.28;;;12.32;100.00
79242;BME280;68670;48.720;9.118;2023-08-30T00:10:53;96338.03;;;12.23;100.00
79242;BME280;68670;48.720;9.118;2023-08-30T00:13:19;96333.63;;;12.17;100.00
79242;BME280;68670;48.720;9.118;2023-08-30T00:15:49;96332.50;;;12.13;100.00
79242;BME280;68670;48.720;9.118;2023-08-30T00:18:17;96334.69;;;12.10;100.00
79242;BME280;68670;48.720;9.118;2023-08-30T00:20:44;96328.06;;;12.06;100.00
79242;BME280;68670;48.720;9.118;2023-08-30T00:23:17;96327.50;;;12.04;100.00
79242;BME280;68670;48.720;9.118;2023-08-30T00:25:43;96319.81;;;12.01;100.00
79242;BME280;68670;48.720;9.118;2023-08-30T00:28:08;96324.72;;;11.94;100.00
79242;BME280;68670;48.720;9.118;2023-08-30T00:30:41;96318.69;;;11.97;100.00
79242;BME280;68670;48.720;9.118;2023-08-30T00:33:06;96319.81;;;12.01;100.00
79242;BME280;68670;48.720;9.118;2023-08-30T00:35:31;96310.47;;;12.02;100.00
79242;BME280;68670;48.720;9.118;2023-08-30T00:37:59;96311.59;;;12.06;100.00
79242;BME280;68670;48.720;9.118;2023-08-30T00:40:28;96302.78;;;12.04;100.00
79242;BME280;68670;48.720;9.118;2023-08-30T00:42:53;96300.34;;;12.08;100.00
79242;BME280;68670;48.720;9.118;2023-08-30T00:48:12;96296.81;;;12.13;100.00
79242;BME280;68670;48.720;9.118;2023-08-30T00:50:43;96291.59;;;12.11;100.00
79242;BME280;68670;48.720;9.118;2023-08-30T00:53:10;96294.06;;;12.13;100.00
79242;BME280;68670;48.720;9.118;2023-08-30T00:55:38;96288.56;;;12.13;100.00
79242;BME280;68670;48.720;9.118;2023-08-30T00:58:07;96292.19;;;12.23;100.00
79242;BME280;68670;48.720;9.118;2023-08-30T01:00:36;96288.31;;;12.19;100.00
79242;BME280;68670;48.720;9.118;2023-08-30T01:03:06;96277.06;;;12.16;100.00
79242;BME280;68670;48.720;9.118;2023-08-30T01:05:43;96277.59;;;12.13;100.00
79242;BME280;68670;48.720;9.118;2023-08-30T01:08:08;96281.44;;;12.11;100.00
79242;BME280;68670;48.720;9.118;2023-08-30T01:13:28;96284.69;;;12.03;100.00
79242;BME280;68670;48.720;9.118;2023-08-30T01:16:07;96274.28;;;12.10;100.00
79242;BME280;68670;48.720;9.118;2023-08-30T01:18:40;96270.97;;;12.08;100.00
79242;BME280;68670;48.720;9.118;2023-08-30T01:21:13;96276.19;;;12.10;100.00
79242;BME280;68670;48.720;9.118;2023-08-30T01:26:44;96271.03;;;12.19;100.00
79242;BME280;68670;48.720;9.118;2023-08-30T01:29:20;96268.59;;;12.27;100.00
79242;BME280;68670;48.720;9.118;2023-08-30T01:31:54;96273.50;;;12.20;100.00
79242;BME280;68670;48.720;9.118;2023-08-30T01:34:21;96277.63;;;12.23;100.00
79242;BME280;68670;48.720;9.118;2023-08-30T01:36:58;96274.88;;;12.18;100.00
79242;BME280;68670;48.720;9.118;2023-08-30T01:39:25;96272.09;;;12.13;100.00
79242;BME280;68670;48.720;9.118;2023-08-30T01:41:51;96266.59;;;12.07;100.00
79242;BME280;68670;48.720;9.118;2023-08-30T01:44:46;96277.56;;;12.07;100.00
79242;BME280;68670;48.720;9.118;2023-08-30T01:47:12;96272.59;;;11.99;100.00
79242;BME280;68670;48.720;9.118;2023-08-30T01:49:38;96275.31;;;11.94;100.00
79242;BME280;68670;48.720;9.118;2023-08-30T01:52:05;96275.03;;;11.91;100.00
79242;BME280;68670;48.720;9.118;2023-08-30T01:54:31;96267.59;;;11.86;100.00
79242;BME280;68670;48.720;9.118;2023-08-30T01:56:57;96274.47;;;11.89;100.00
79242;BME280;68670;48.720;9.118;2023-08-30T01:59:25;96276.97;;;11.95;100.00
79242;BME280;68670;48.720;9.118;2023-08-30T02:01:53;96279.97;;;11.94;100.00
79242;BME280;68670;48.720;9.118;2023-08-30T02:04:21;96282.16;;;11.92;100.00
79242;BME280;68670;48.720;9.118;2023-08-30T02:07:23;96280.28;;;11.97;100.00
79242;BME280;68670;48.720;9.118;2023-08-30T02:09:58;96285.78;;;11.97;100.00
79242;BME280;68670;48.720;9.118;2023-08-30T02:12:30;96283.31;;;12.06;100.00
79242;BME280;68670;48.720;9.118;2023-08-30T02:15:06;96281.09;;;12.03;100.00
79242;BME280;68670;48.720;9.118;2023-08-30T02:17:35;96281.94;;;12.03;100.00
79242;BME280;68670;48.720;9.118;2023-08-30T02:20:02;96277.00;;;12.05;100.00
79242;BME280;68670;48.720;9.118;2023-08-30T02:22:30;96274.78;;;12.02;100.00
79242;BME280;68670;48.720;9.118;2023-08-30T02:24:59;96277.53;;;12.02;100.00
79242;BME280;68670;48.720;9.118;2023-08-30T02:27:26;96277.53;;;12.02;100.00
79242;BME280;68670;48.720;9.118;2023-08-30T02:29:54;96277.81;;;11.96;100.00
79242;BME280;68670;48.720;9.118;2023-08-30T02:32:19;96277.50;;;11.92;100.00
79242;BME280;68670;48.720;9.118;2023-08-30T02:34:49;96276.38;;;11.88;100.00
79242;BME280;68670;48.720;9.118;2023-08-30T02:37:32;96278.78;;;11.80;100.00
79242;BME280;68670;48.720;9.118;2023-08-30T02:39:59;96280.97;;;11.77;100.00
79242;BME280;68670;48.720;9.118;2023-08-30T02:42:26;96287.88;;;11.85;100.00
79242;BME280;68670;48.720;9.118;2023-08-30T02:44:56;96291.69;;;11.79;100.00
79242;BME280;68670;48.720;9.118;2023-08-30T02:47:21;96292.19;;;11.76;100.00
79242;BME280;68670;48.720;9.118;2023-08-30T02:49:47;96290.06;;;11.83;100.00
79242;BME280;68670;48.720;9.118;2023-08-30T02:52:15;96284.63;;;11.88;100.00
79242;BME280;68670;48.720;9.118;2023-08-30T02:54:43;96291.22;;;11.92;100.00
79242;BME280;68670;48.720;9.118;2023-08-30T02:57:10;96277.75;;;11.86;100.00
79242;BME280;68670;48.720;9.118;2023-08-30T02:59:41;96284.28;;;11.80;100.00
79242;BME280;68670;48.720;9.118;2023-08-30T03:02:09;96288.41;;;11.82;100.00
79242;BME280;68670;48.720;9.118;2023-08-30T03:04:34;96290.06;;;11.83;100.00
79242;BME280;68670;48.720;9.118;2023-08-30T03:07:05;96285.63;;;11.77;100.00
79242;BME280;68670;48.720;9.118;2023-08-30T03:09:33;96279.00;;;11.73;100.00
79242;BME280;68670;48.720;9.118;2023-08-30T03:11:58;96276.78;;;11.65;100.00
79242;BME280;68670;48.720;9.118;2023-08-30T03:14:50;96274.59;;;11.67;100.00
79242;BME280;68670;48.720;9.118;2023-08-30T03:17:18;96269.63;;;11.64;100.00
79242;BME280;68670;48.720;9.118;2023-08-30T03:19:52;96267.69;;;11.59;100.00
79242;BME280;68670;48.720;9.118;2023-08-30T03:22:23;96269.00;;;11.52;100.00
79242;BME280;68670;48.720;9.118;2023-08-30T03:24:49;96263.47;;;11.47;100.00
79242;BME280;68670;48.720;9.118;2023-08-30T03:27:20;96267.84;;;11.42;100.00
79242;BME280;68670;48.720;9.118;2023-08-30T03:29:46;96268.34;;;11.39;100.00
79242;BME280;68670;48.720;9.118;2023-08-30T03:32:16;96252.47;;;11.36;100.00
79242;BME280;68670;48.720;9.118;2023-08-30T03:34:53;96252.47;;;11.36;100.00
79242;BME280;68670;48.720;9.118;2023-08-30T03:37:19;96252.16;;;11.33;100.00
79242;BME280;68670;48.720;9.118;2023-08-30T03:39:44;96251.56;;;11.26;100.00
79242;BME280;68670;48.720;9.118;2023-08-30T03:42:14;96252.13;;;11.28;100.00
79242;BME280;68670;48.720;9.118;2023-08-30T03:44:45;96255.16;;;11.31;100.00
79242;BME280;68670;48.720;9.118;2023-08-30T03:47:10;96251.34;;;11.32;100.00
79242;BME280;68670;48.720;9.118;2023-08-30T03:49:36;96243.41;;;11.41;100.00
79242;BME280;68670;48.720;9.118;2023-08-30T03:52:04;96248.63;;;11.42;100.00
79242;BME280;68670;48.720;9.118;2023-08-30T03:54:32;96255.22;;;11.41;100.00
79242;BME280;68670;48.720;9.118;2023-08-30T03:56:57;96258.78;;;11.37;100.00
79242;BME280;68670;48.720;9.118;2023-08-30T03:59:22;96260.66;;;11.31;100.00
79242;BME280;68670;48.720;9.118;2023-08-30T04:01:53;96262.81;;;11.29;100.00
79242;BME280;68670;48.720;9.118;2023-08-30T04:04:22;96261.16;;;11.28;100.00
79242;BME280;68670;48.720;9.118;2023-08-30T04:06:47;96265.53;;;11.24;100.00
79242;BME280;68670;48.720;9.118;2023-08-30T04:09:24;96274.84;;;11.23;100.00
79242;BME280;68670;48.720;9.118;2023-08-30T04:11:52;96271.53;;;11.21;100.00
79242;BME280;68670;48.720;9.118;2023-08-30T04:14:18;96271.53;;;11.21;100.00
79242;BME280;68670;48.720;9.118;2023-08-30T04:16:52;96272.63;;;11.20;100.00
79242;BME280;68670;48.720;9.118;2023-08-30T04:19:19;96275.13;;;11.27;100.00
79242;BME280;68670;48.720;9.118;2023-08-30T04:21:45;96269.13;;;11.30;100.00
79242;BME280;68670;48.720;9.118;2023-08-30T04:24:10;96271.56;;;11.26;100.00
79242;BME280;68670;48.720;9.118;2023-08-30T04:26:38;96269.66;;;11.27;100.00
79242;BME280;68670;48.720;9.118;2023-08-30T04:29:04;96268.31;;;11.29;100.00
79242;BME280;68670;48.720;9.118;2023-08-30T04:31:29;96276.78;;;11.28;100.00
79242;BME280;68670;48.720;9.118;2023-08-30T04:34:05;96272.66;;;11.25;100.00
79242;BME280;68670;48.720;9.118;2023-08-30T04:36:30;96270.75;;;11.26;100.00
79242;BME280;68670;48.720;9.118;2023-08-30T04:38:56;96277.56;;;11.23;100.00
79242;BME280;68670;48.720;9.118;2023-08-30T04:41:27;96281.13;;;11.24;100.00
79242;BME280;68670;48.720;9.118;2023-08-30T04:43:52;96283.31;;;11.22;100.00
79242;BME280;68670;48.720;9.118;2023-08-30T04:46:17;96281.41;;;11.22;100.00
79242;BME280;68670;48.720;9.118;2023-08-30T04:48:51;96282.22;;;11.23;100.00
79242;BME280;68670;48.720;9.118;2023-08-30T04:51:16;96278.66;;;11.22;100.00
79242;BME280;68670;48.720;9.118;2023-08-30T04:53:42;96266.66;;;11.28;100.00
79242;BME280;68670;48.720;9.118;2023-08-30T04:56:16;96269.69;;;11.32;100.00
79242;BME280;68670;48.720;9.118;2023-08-30T04:58:43;96268.91;;;11.41;100.00
79242;BME280;68670;48.720;9.118;2023-08-30T05:01:13;96268.97;;;11.47;100.00
79242;BME280;68670;48.720;9.118;2023-08-30T05:03:42;96259.66;;;11.48;100.00
79242;BME280;68670;48.720;9.118;2023-08-30T05:06:11;96267.31;;;11.45;100.00
79242;BME280;68670;48.720;9.118;2023-08-30T05:08:39;96254.47;;;11.51;100.00
79242;BME280;68670;48.720;9.118;2023-08-30T05:11:06;96262.94;;;11.50;100.00
79242;BME280;68670;48.720;9.118;2023-08-30T05:13:33;96262.38;;;11.48;100.00
79242;BME280;68670;48.720;9.118;2023-08-30T05:16:05;96264.59;;;11.51;100.00
79242;BME280;68670;48.720;9.118;2023-08-30T05:18:30;96261.91;;;11.56;100.00
79242;BME280;68670;48.720;9.118;2023-08-30T05:20:55;96258.66;;;11.64;100.00
79242;BME280;68670;48.720;9.118;2023-08-30T05:23:30;96265.25;;;11.63;100.00
79242;BME280;68670;48.720;9.118;2023-08-30T05:25:55;96266.34;;;11.62;100.00
79242;BME280;68670;48.720;9.118;2023-08-30T05:28:21;96269.63;;;11.64;100.00
79242;BME280;68670;48.720;9.118;2023-08-30T05:30:52;96264.72;;;11.71;100.00
79242;BME280;68670;48.720;9.118;2023-08-30T05:33:17;96276.50;;;11.71;100.00
79242;BME280;68670;48.720;9.118;2023-08-30T05:35:42;96275.16;;;11.74;100.00
79242;BME280;68670;48.720;9.118;2023-08-30T05:38:18;96267.56;;;11.81;100.00
79242;BME280;68670;48.720;9.118;2023-08-30T05:40:46;96275.50;;;11.77;100.00
79242;BME280;68670;48.720;9.118;2023-08-30T05:43:14;96265.34;;;11.78;100.00
79242;BME280;68670;48.720;9.118;2023-08-30T05:45:43;96262.88;;;11.76;100.00
79242;BME280;68670;48.720;9.118;2023-08-30T05:48:08;96264.84;;;11.86;100.00
79242;BME280;68670;48.720;9.118;2023-08-30T05:50:45;96265.13;;;11.90;100.00
79242;BME280;68670;48.720;9.118;2023-08-30T05:53:11;96263.22;;;11.90;100.00
79242;BME280;68670;48.720;9.118;2023-08-30T05:55:36;96266.53;;;11.92;100.00
79242;BME280;68670;48.720;9.118;2023-08-30T05:58:10;96273.66;;;11.93;100.00
79242;BME280;68670;48.720;9.118;2023-08-30T06:00:38;96275.34;;;11.99;99.50
79242;BME280;68670;48.720;9.118;2023-08-30T06:03:15;96272.59;;;12.04;98.50
79242;BME280;68670;48.720;9.118;2023-08-30T06:05:44;96274.00;;;12.07;98.96
79242;BME280;68670;48.720;9.118;2023-08-30T06:08:09;96269.31;;;12.07;98.94
79242;BME280;68670;48.720;9.118;2023-08-30T06:10:35;96269.59;;;12.06;98.87
79242;BME280;68670;48.720;9.118;2023-08-30T06:13:04;96271.53;;;12.10;99.50
79242;BME280;68670;48.720;9.118;2023-08-30T06:15:37;96268.53;;;12.12;99.92
79242;BME280;68670;48.720;9.118;2023-08-30T06:18:04;96279.22;;;12.08;98.73
79242;BME280;68670;48.720;9.118;2023-08-30T06:20:29;96275.09;;;12.11;98.62
79242;BME280;68670;48.720;9.118;2023-08-30T06:22:58;96271.56;;;12.16;99.02
79242;BME280;68670;48.720;9.118;2023-08-30T06:25:26;96271.59;;;12.21;98.80
79242;BME280;68670;48.720;9.118;2023-08-30T06:27:58;96275.19;;;12.26;98.10
79242;BME280;68670;48.720;9.118;2023-08-30T06:30:29;96269.19;;;12.34;97.64
79242;BME280;68670;48.720;9.118;2023-08-30T06:32:57;96268.06;;;12.40;96.90
79242;BME280;68670;48.720;9.118;2023-08-30T06:35:38;96280.97;;;12.40;97.41
79242;BME280;68670;48.720;9.118;2023-08-30T06:38:07;96281.53;;;12.42;98.31
79242;BME280;68670;48.720;9.118;2023-08-30T06:40:43;96272.47;;;12.41;97.94
79242;BME280;68670;48.720;9.118;2023-08-30T06:43:12;96270.56;;;12.47;96.46
79242;BME280;68670;48.720;9.118;2023-08-30T06:45:43;96267.28;;;12.45;96.24
79242;BME280;68670;48.720;9.118;2023-08-30T06:48:11;96276.63;;;12.49;96.90
79242;BME280;68670;48.720;9.118;2023-08-30T06:50:36;96273.06;;;12.54;98.35
79242;BME280;68670;48.720;9.118;2023-08-30T06:53:10;96273.09;;;12.59;97.01
79242;BME280;68670;48.720;9.118;2023-08-30T06:55:36;96279.97;;;12.61;96.44
79242;BME280;68670;48.720;9.118;2023-08-30T06:58:02;96280.78;;;12.57;97.05
79242;BME280;68670;48.720;9.118;2023-08-30T07:00:31;96279.97;;;12.61;97.92
79242;BME280;68670;48.720;9.118;2023-08-30T07:02:59;96283.81;;;12.70;96.01
79242;BME280;68670;48.720;9.118;2023-08-30T07:05:24;96266.50;;;12.70;95.99
79242;BME280;68670;48.720;9.118;2023-08-30T07:07:52;96267.63;;;12.64;96.46
79242;BME280;68670;48.720;9.118;2023-08-30T07:10:19;96271.75;;;12.66;97.19
79242;BME280;68670;48.720;9.118;2023-08-30T07:12:54;96271.75;;;12.66;97.04
79242;BME280;68670;48.720;9.118;2023-08-30T07:15:20;96270.09;;;12.65;97.25
79242;BME280;68670;48.720;9.118;2023-08-30T07:17:45;96266.22;;;12.71;97.74
79242;BME280;68670;48.720;9.118;2023-08-30T07:20:19;96271.16;;;12.69;98.66
79242;BME280;68670;48.720;9.118;2023-08-30T07:22:45;96267.06;;;12.67;98.87
79242;BME280;68670;48.720;9.118;2023-08-30T07:25:11;96271.16;;;12.69;97.49
79242;BME280;68670;48.720;9.118;2023-08-30T07:27:50;96267.88;;;12.72;98.61
79242;BME280;68670;48.720;9.118;2023-08-30T07:30:16;96262.94;;;12.74;98.36
79242;BME280;68670;48.720;9.118;2023-08-30T07:32:41;96264.06;;;12.89;95.21
79242;BME280;68670;48.720;9.118;2023-08-30T07:35:09;96264.06;;;12.89;95.24
79242;BME280;68670;48.720;9.118;2023-08-30T07:37:35;96270.66;;;12.88;96.29
79242;BME280;68670;48.720;9.118;2023-08-30T07:40:01;96264.09;;;12.99;94.78
79242;BME280;68670;48.720;9.118;2023-08-30T07:42:35;96273.44;;;12.98;95.42
79242;BME280;68670;48.720;9.118;2023-08-30T07:45:00;96272.03;;;13.00;95.41
79242;BME280;68670;48.720;9.118;2023-08-30T07:47:29;96268.19;;;13.01;95.37
79242;BME280;68670;48.720;9.118;2023-08-30T07:50:00;96267.66;;;13.04;96.32
79242;BME280;68670;48.720;9.118;2023-08-30T07:52:25;96267.91;;;13.08;95.62
79242;BME280;68670;48.720;9.118;2023-08-30T07:54:52;96266.03;;;13.19;96.49
79242;BME280;68670;48.720;9.118;2023-08-30T07:57:23;96273.47;;;13.18;96.83
79242;BME280;68670;48.720;9.118;2023-08-30T07:59:48;96274.56;;;13.22;96.63
79242;BME280;68670;48.720;9.118;2023-08-30T08:02:13;96267.13;;;13.18;96.55
79242;BME280;68670;48.720;9.118;2023-08-30T08:04:48;96272.91;;;13.21;95.67
79242;BME280;68670;48.720;9.118;2023-08-30T08:07:15;96269.63;;;13.24;95.22
79242;BME280;68670;48.720;9.118;2023-08-30T08:09:40;96272.38;;;13.29;95.23
79242;BME280;68670;48.720;9.118;2023-08-30T08:12:23;96279.22;;;13.37;95.17
79242;BME280;68670;48.720;9.118;2023-08-30T08:14:53;96282.25;;;13.40;94.38
79242;BME280;68670;48.720;9.118;2023-08-30T08:17:22;96272.91;;;13.52;94.09
79242;BME280;68670;48.720;9.118;2023-08-30T08:19:47;96280.59;;;13.50;93.03
79242;BME280;68670;48.720;9.118;2023-08-30T08:22:12;96278.41;;;13.52;93.57
79242;BME280;68670;48.720;9.118;2023-08-30T08:24:41;96281.69;;;13.54;93.19
79242;BME280;68670;48.720;9.118;2023-08-30T08:27:12;96277.81;;;13.65;93.73
79242;BME280;68670;48.720;9.118;2023-08-30T08:29:38;96268.19;;;13.72;90.70
79242;BME280;68670;48.720;9.118;2023-08-30T08:32:09;96270.63;;;13.84;90.98
79242;BME280;68670;48.720;9.118;2023-08-30T08:34:35;96270.38;;;13.81;90.38
79242;BME280;68670;48.720;9.118;2023-08-30T08:37:00;96265.69;;;13.91;90.21
79242;BME280;68670;48.720;9.118;2023-08-30T08:39:37;96272.00;;;13.92;90.10
79242;BME280;68670;48.720;9.118;2023-08-30T08:42:03;96270.03;;;14.02;91.56
79242;BME280;68670;48.720;9.118;2023-08-30T08:44:31;96271.41;;;14.05;91.77
79242;BME280;68670;48.720;9.118;2023-08-30T08:47:10;96268.88;;;14.24;90.07
79242;BME280;68670;48.720;9.118;2023-08-30T08:49:35;96268.84;;;14.29;88.79
79242;BME280;68670;48.720;9.118;2023-08-30T08:52:00;96266.31;;;14.37;88.26
79242;BME280;68670;48.720;9.118;2023-08-30T08:54:29;96265.19;;;14.54;88.42
79242;BME280;68670;48.720;9.118;2023-08-30T08:56:55;96254.34;;;14.62;87.40
79242;BME280;68670;48.720;9.118;2023-08-30T08:59:23;96258.16;;;14.76;87.31
79242;BME280;68670;48.720;9.118;2023-08-30T09:01:53;96260.03;;;14.86;87.46
79242;BME280;68670;48.720;9.118;2023-08-30T09:04:24;96256.34;;;14.96;86.25
79242;BME280;68670;48.720;9.118;2023-08-30T09:06:50;96257.34;;;15.10;83.84
79242;BME280;68670;48.720;9.118;2023-08-30T09:09:15;96253.22;;;15.12;83.87
79242;BME280;68670;48.720;9.118;2023-08-30T09:11:41;96260.69;;;15.07;82.62
79242;BME280;68670;48.720;9.118;2023-08-30T09:14:09;96258.72;;;15.12;83.36
79242;BME280;68670;48.720;9.118;2023-08-30T09:16:53;96257.56;;;15.19;82.36
79242;BME280;68670;48.720;9.118;2023-08-30T09:19:22;96258.22;;;15.39;83.03
79242;BME280;68670;48.720;9.118;2023-08-30T09:21:59;96260.72;;;15.70;82.01
79242;BME280;68670;48.720;9.118;2023-08-30T09:24:25;96270.13;;;16.22;82.54
79242;BME280;68670;48.720;9.118;2023-08-30T09:26:55;96267.94;;;16.61;77.47
79242;BME280;68670;48.720;9.118;2023-08-30T09:29:26;96261.50;;;16.90;74.53
79242;BME280;68670;48.720;9.118;2023-08-30T09:31:52;96263.94;;;17.48;73.79
79242;BME280;68670;48.720;9.118;2023-08-30T09:34:22;96255.22;;;17.73;70.29
79242;BME280;68670;48.720;9.118;2023-08-30T09:36:51;96249.31;;;18.21;70.03
79242;BME280;68670;48.720;9.118;2023-08-30T09:39:17;96246.03;;;18.60;70.23
79242;BME280;68670;48.720;9.118;2023-08-30T09:41:46;96246.69;;;19.29;67.47
79242;BME280;68670;48.720;9.118;2023-08-30T09:44:18;96247.19;;;19.31;61.46
79242;BME280;68670;48.720;9.118;2023-08-30T09:46:46;96250.94;;;19.49;61.79
79242;BME280;68670;48.720;9.118;2023-08-30T09:49:12;96242.22;;;19.41;59.07
79242;BME280;68670;48.720;9.118;2023-08-30T09:51:47;96236.16;;;19.62;59.12
79242;BME280;68670;48.720;9.118;2023-08-30T09:54:17;96239.91;;;19.88;59.29
79242;BME280;68670;48.720;9.118;2023-08-30T09:56:43;96245.44;;;20.10;57.74
79242;BME280;68670;48.720;9.118;2023-08-30T09:59:17;96233.19;;;20.20;58.15
79242;BME280;68670;48.720;9.118;2023-08-30T10:01:50;96238.09;;;20.14;56.76
79242;BME280;68670;48.720;9.118;2023-08-30T10:04:19;96235.38;;;20.32;58.74
79242;BME280;68670;48.720;9.118;2023-08-30T10:06:45;96239.06;;;20.41;58.09
79242;BME280;68670;48.720;9.118;2023-08-30T10:09:10;96239.69;;;20.38;56.95
79242;BME280;68670;48.720;9.118;2023-08-30T10:11:36;96240.88;;;20.54;56.52
79242;BME280;68670;48.720;9.118;2023-08-30T10:14:07;96233.53;;;20.58;54.16
79242;BME280;68670;48.720;9.118;2023-08-30T10:16:46;96225.16;;;20.50;54.83
79242;BME280;68670;48.720;9.118;2023-08-30T10:19:27;96226.97;;;20.54;55.71
79242;BME280;68670;48.720;9.118;2023-08-30T10:22:06;96220.16;;;20.77;55.50
79242;BME280;68670;48.720;9.118;2023-08-30T10:25:04;96203.50;;;21.38;55.61
79242;BME280;68670;48.720;9.118;2023-08-30T10:27:35;96209.25;;;21.33;52.66
79242;BME280;68670;48.720;9.118;2023-08-30T10:30:14;96208.06;;;21.68;52.59
79242;BME280;68670;48.720;9.118;2023-08-30T10:32:42;96209.84;;;21.12;50.50
79242;BME280;68670;48.720;9.118;2023-08-30T10:35:13;96199.69;;;21.17;51.72
79242;BME280;68670;48.720;9.118;2023-08-30T10:37:39;96195.47;;;21.10;52.22
79242;BME280;68670;48.720;9.118;2023-08-30T10:40:09;96203.13;;;20.88;53.19
79242;BME280;68670;48.720;9.118;2023-08-30T10:42:39;96201.50;;;20.87;52.56
79242;BME280;68670;48.720;9.118;2023-08-30T10:45:06;96197.25;;;21.15;53.44
79242;BME280;68670;48.720;9.118;2023-08-30T10:47:34;96189.53;;;21.46;52.04
79242;BME280;68670;48.720;9.118;2023-08-30T10:50:07;96194.53;;;21.96;50.07
79242;BME280;68670;48.720;9.118;2023-08-30T10:52:35;96186.97;;;22.05;52.16
79242;BME280;68670;48.720;9.118;2023-08-30T10:55:22;96193.16;;;22.20;48.92
79242;BME280;68670;48.720;9.118;2023-08-30T10:58:01;96183.41;;;21.79;48.54
79242;BME280;68670;48.720;9.118;2023-08-30T11:00:32;96185.00;;;21.97;48.25
79242;BME280;68670;48.720;9.118;2023-08-30T11:03:10;96186.84;;;22.02;48.01
79242;BME280;68670;48.720;9.118;2023-08-30T11:05:35;96180.53;;;22.13;48.76
79242;BME280;68670;48.720;9.118;2023-08-30T11:08:04;96189.00;;;22.34;48.53
79242;BME280;68670;48.720;9.118;2023-08-30T11:10:37;96186.13;;;22.43;46.93
79242;BME280;68670;48.720;9.118;2023-08-30T11:13:14;96174.59;;;22.24;47.12
79242;BME280;68670;48.720;9.118;2023-08-30T11:15:40;96176.59;;;22.44;49.03
79242;BME280;68670;48.720;9.118;2023-08-30T11:18:13;96178.59;;;22.73;44.74
79242;BME280;68670;48.720;9.118;2023-08-30T11:20:44;96174.22;;;22.63;44.03
79242;BME280;68670;48.720;9.118;2023-08-30T11:23:09;96163.91;;;22.85;45.70
79242;BME280;68670;48.720;9.118;2023-08-30T11:25:37;96174.16;;;22.42;45.39
79242;BME280;68670;48.720;9.118;2023-08-30T11:28:05;96171.16;;;21.71;46.42
79242;BME280;68670;48.720;9.118;2023-08-30T11:30:30;96168.28;;;21.33;48.00
79242;BME280;68670;48.720;9.118;2023-08-30T11:33:11;96173.19;;;21.02;49.25
79242;BME280;68670;48.720;9.118;2023-08-30T11:35:37;96166.09;;;20.61;49.65
79242;BME280;68670;48.720;9.118;2023-08-30T11:38:02;96178.03;;;20.44;51.09
79242;BME280;68670;48.720;9.118;2023-08-30T11:40:32;96178.22;;;20.17;52.46
79242;BME280;68670;48.720;9.118;2023-08-30T11:43:07;96177.53;;;20.03;55.34
79242;BME280;68670;48.720;9.118;2023-08-30T11:45:34;96171.31;;;19.66;54.41
79242;BME280;68670;48.720;9.118;2023-08-30T11:48:03;96176.88;;;19.22;54.01
79242;BME280;68670;48.720;9.118;2023-08-30T11:50:29;96192.47;;;19.09;55.75
79242;BME280;68670;48.720;9.118;2023-08-30T11:52:55;96190.94;;;18.53;57.54
79242;BME280;68670;48.720;9.118;2023-08-30T11:55:24;96199.31;;;17.98;59.53
79242;BME280;68670;48.720;9.118;2023-08-30T11:57:59;96207.00;;;17.74;60.19
79242;BME280;68670;48.720;9.118;2023-08-30T12:00:25;96212.41;;;17.33;63.81
79242;BME280;68670;48.720;9.118;2023-08-30T12:02:51;96223.16;;;17.02;68.02
79242;BME280;68670;48.720;9.118;2023-08-30T12:05:18;96224.69;;;16.52;72.60
79242;BME280;68670;48.720;9.118;2023-08-30T12:07:48;96222.28;;;16.02;75.77
79242;BME280;68670;48.720;9.118;2023-08-30T12:10:17;96228.75;;;15.64;78.28
79242;BME280;68670;48.720;9.118;2023-08-30T12:12:57;96221.16;;;15.51;77.49
79242;BME280;68670;48.720;9.118;2023-08-30T12:15:23;96212.72;;;15.37;81.26
79242;BME280;68670;48.720;9.118;2023-08-30T12:17:50;96215.34;;;15.23;79.91
79242;BME280;68670;48.720;9.118;2023-08-30T12:20:23;96203.22;;;15.19;80.96
79242;BME280;68670;48.720;9.118;2023-08-30T12:22:52;96202.94;;;15.21;81.07
79242;BME280;68670;48.720;9.118;2023-08-30T12:25:19;96200.44;;;15.24;86.32
79242;BME280;68670;48.720;9.118;2023-08-30T12:27:50;96186.56;;;15.29;88.58
79242;BME280;68670;48.720;9.118;2023-08-30T12:30:16;96191.16;;;15.39;89.51
79242;BME280;68670;48.720;9.118;2023-08-30T12:32:45;96184.50;;;15.45;87.45
79242;BME280;68670;48.720;9.118;2023-08-30T12:35:30;96179.31;;;15.38;88.16
79242;BME280;68670;48.720;9.118;2023-08-30T12:38:02;96179.22;;;15.49;82.78
79242;BME280;68670;48.720;9.118;2023-08-30T12:40:38;96175.25;;;15.60;86.77
79242;BME280;68670;48.720;9.118;2023-08-30T12:43:04;96169.63;;;15.70;83.75
79242;BME280;68670;48.720;9.118;2023-08-30T12:45:30;96174.44;;;15.83;85.92
79242;BME280;68670;48.720;9.118;2023-08-30T12:47:58;96177.16;;;15.88;85.88
79242;BME280;68670;48.720;9.118;2023-08-30T12:50:24;96168.16;;;15.77;83.71
79242;BME280;68670;48.720;9.118;2023-08-30T12:52:51;96177.41;;;15.92;82.56
79242;BME280;68670;48.720;9.118;2023-08-30T12:55:34;96172.53;;;16.02;84.88
79242;BME280;68670;48.720;9.118;2023-08-30T12:58:04;96175.25;;;16.07;83.49
79242;BME280;68670;48.720;9.118;2023-08-30T13:00:43;96171.47;;;16.22;84.54
79242;BME280;68670;48.720;9.118;2023-08-30T13:03:11;96170.72;;;16.35;81.59
79242;BME280;68670;48.720;9.118;2023-08-30T13:05:36;96180.25;;;16.48;76.89
79242;BME280;68670;48.720;9.118;2023-08-30T13:08:04;96169.63;;;16.55;80.96
79242;BME280;68670;48.720;9.118;2023-08-30T13:10:32;96163.38;;;16.68;81.37
79242;BME280;68670;48.720;9.118;2023-08-30T13:12:58;96165.47;;;16.76;83.06
79242;BME280;68670;48.720;9.118;2023-08-30T13:15:29;96161.84;;;16.95;81.43
79242;BME280;68670;48.720;9.118;2023-08-30T13:18:03;96153.38;;;17.05;80.09